Weather observations for the past three days for
Waco, Waco Regional Airport
Metric (Imperial)
Date Time (cdt) Wind (kph) Vis. (km) Weather Sky Cond. Temperature (ºC) Relative Humidity Wind Chill (°C) Heat Index (°C) Pressure Precipitation (cm)
Air Dwpt 6 hour altimeter (cm) sea level (mb) 1 hr 3 hr 6 hr
Max. Min.
03 01:51 S 22 16.09 Fair CLR 27.2 22.8 77% 30 75.95 1011.7
03 00:51 S 20 16.09 Fair CLR 27.8 22.8 35 27.2 74% 31 76 1012.1
02 23:51 SE 9 16.09 Fair CLR 27.2 22.2 74% 30 76 1012.1
02 22:51 SE 19 16.09 Fair CLR 28.3 22.2 70% 31 76.02 1012.5
02 21:51 E 19 16.09 Fair CLR 29.4 21.1 61% 32 76 1012.2
02 20:51 E 15 16.09 Fair CLR 30 21.7 61% 33 75.9 1011.0
02 19:51 E 19 16.09 Fair CLR 31.7 21.1 53% 35 75.87 1010.5
02 18:51 E 26 G 41 16.09 A Few Clouds FEW085 35 20 39.4 35 41% 38 75.82 1009.9
02 17:51 NE 13 16.09 Fair CLR 38.3 17.8 30% 40 75.79 1009.4
02 16:51 Vrbl 7 16.09 Fair CLR 38.3 17.8 30% 40 75.79 1009.7
02 15:51 N 15 G 26 16.09 Fair CLR 38.9 17.8 29% 41 75.84 1010.3
02 14:51 Vrbl 7 G 28 16.09 Fair CLR 38.3 18.3 31% 40 75.92 1011.1
02 13:51 Calm 16.09 Fair CLR 37.2 18.9 34% 39 76 1012.1
02 12:51 N 20 G 28 16.09 A Few Clouds FEW060 37.2 20 37.2 23.3 37% 40 76.07 1013.2
02 11:51 Calm 16.09 Fair CLR 33.9 20.6 46% 37 76.15 1014.3
02 10:51 Calm 16.09 Fair CLR 32.2 21.1 52% 35 76.17 1014.6
02 09:51 E 7 16.09 Fair CLR 30.6 21.1 57% 33 76.17 1014.8
02 08:51 E 11 16.09 Fair CLR 28.3 21.1 65% 31 76.17 1014.7
02 07:51 E 6 16.09 Fair CLR 25 21.1 79% 26 76.15 1014.3
02 06:51 NE 7 16.09 Fair CLR 23.3 20.6 28.3 23.3 85% 76.12 1013.9
02 05:51 Calm 16.09 Fair CLR 24.4 21.1 82% 25 76.12 1014.0
02 04:51 SW 6 16.09 Fair CLR 25.6 21.1 76% 27 76.1 1013.6
02 03:51 Calm 16.09 Fair CLR 26.7 21.7 74% 29 76.1 1013.7
02 02:51 S 7 16.09 Mostly Cloudy BKN080 27.2 21.7 72% 29 76.12 1014.0
02 01:51 S 9 16.09 Fair CLR 27.8 21.1 67% 30 76.15 1014.3
02 00:51 S 15 16.09 Fair CLR 28.3 21.1 36.1 28.3 65% 31 76.15 1014.2
01 23:51 SE 11 16.09 Fair CLR 28.9 21.1 63% 31 76.12 1014.1
01 22:51 SE 26 16.09 Fair CLR 30 20.6 57% 32 76.12 1013.8
01 21:51 SE 24 G 31 16.09 Fair CLR 31.7 20 50% 34 76.05 1013.0
01 20:51 E 7 16.09 Fair CLR 31.7 19.4 48% 33 75.97 1011.9
01 19:51 E 11 16.09 Fair CLR 34.4 19.4 41% 36 75.95 1011.5
01 18:51 E 15 16.09 Fair CLR 36.1 18.9 38.3 35 36% 38 75.95 1011.6
01 17:51 SE 15 16.09 Fair CLR 36.1 17.8 34% 37 75.97 1011.9
01 16:51 E 20 G 31 16.09 Fair CLR 38.3 18.9 32% 41 75.97 1012.0
01 15:51 E 20 G 30 16.09 Mostly Cloudy BKN070 37.2 18.9 34% 39 76.02 1012.5
01 14:51 E 15 G 22 16.09 Partly Cloudy SCT070 36.7 19.4 36% 39 76.07 1013.2
01 13:51 SE 15 16.09 Partly Cloudy SCT060 37.2 20 37% 40 76.12 1014.0
01 12:51 SE 15 16.09 A Few Clouds FEW055 35.6 20 35.6 24.4 40% 38 76.23 1015.2
01 11:51 Vrbl 11 16.09 Fair CLR 34.4 20.6 44% 37 76.28 1015.8
01 10:51 SE 7 16.09 Fair CLR 32.8 21.1 50% 36 76.3 1016.3
01 09:51 S 6 16.09 Fair CLR 31.1 21.7 57% 34 76.3 1016.4
01 08:51 S 6 16.09 Fair CLR 28.9 22.8 70% 32 76.3 1016.2
01 07:51 SE 7 16.09 Fair CLR 25.6 22.2 82% 27 76.28 1016.0
01 06:51 SE 7 16.09 Fair CLR 24.4 21.7 30 24.4 85% 25 76.25 1015.5
01 05:51 Calm 16.09 Fair CLR 26.7 22.2 76% 29 76.23 1015.2
01 04:51 S 9 16.09 Fair CLR 26.1 22.2 79% 28 76.2 1015.1
01 03:51 S 7 16.09 Fair CLR 26.7 22.2 76% 29 76.2 1014.9
01 02:51 S 13 16.09 A Few Clouds FEW080 28.3 22.2 70% 31 76.17 1014.7
01 01:51 S 22 16.09 A Few Clouds FEW070 29.4 21.7 63% 32 76.17 1014.7
01 00:51 S 24 16.09 Fair CLR 30 21.1 36.7 27.2 59% 33 76.15 1014.2
31 23:51 SE 17 16.09 Fair CLR 30 18.3 49% 31 76.12 1013.9
31 22:51 SE 7 16.09 Fair CLR 28.3 16.7 49% 29 76.1 1013.6
31 20:51 SE 7 16.09 Fair CLR 31.1 16.1 40% 31 76.02 1012.6
31 19:51 SE 11 16.09 Fair CLR 34.4 15.6 32% 34 76 1012.2
31 18:51 S 17 16.09 Fair CLR 36.7 16.7 38.9 36.1 31% 37 75.97 1012.1
31 17:51 SE 13 16.09 Fair CLR 37.2 15.6 28% 37 76 1012.3
31 16:51 S 9 16.09 Fair CLR 38.3 14.4 24% 38 76.02 1012.5
31 15:51 S 19 G 30 16.09 Fair CLR 38.3 16.1 27% 39 76.07 1013.3
31 14:51 S 24 G 37 16.09 A Few Clouds FEW080 37.8 17.8 31% 39 76.15 1014.3
31 13:51 SE 15 16.09 Fair CLR 36.7 18.3 34% 38 76.2 1014.9
31 12:51 S 20 16.09 Fair CLR 36.1 18.9 36.1 25 36% 38 76.25 1015.7
31 11:51 S 11 16.09 Fair CLR 33.9 21.1 47% 37 76.3 1016.5
31 10:51 S 11 16.09 Fair CLR 31.7 21.7 55% 35 76.33 1016.5
31 09:51 Vrbl 11 16.09 Fair CLR 30 22.8 65% 34 76.3 1016.3
31 08:51 SW 11 16.09 Fair CLR 27.2 23.3 79% 30 76.28 1016.1
31 07:51 S 13 16.09 Fair CLR 25.6 23.3 87% 27 76.23 1015.4
31 06:51 S 15 16.09 Fair CLR 25 22.8 29.4 25 88% 26 76.2 1014.8
31 05:51 S 15 16.09 Fair CLR 25.6 22.2 82% 27 76.15 1014.3
31 04:51 S 17 16.09 Fair CLR 26.7 22.2 76% 29 76.15 1014.2
31 03:51 S 19 16.09 Fair CLR 27.2 21.7 72% 29 76.12 1014.0
31 02:51 S 15 16.09 Fair CLR 27.8 21.7 69% 30 76.12 1014.1
Date Time (cdt) Wind (kph) Vis. (km) Weather Sky Cond. Air Dwpt Max. Min. Relative Humidity Wind Chill (°C) Heat Index (°C) altimeter (cm) sea level (mb) 1 hr 3 hr 6 hr
6 hour
Temperature (ºC) Pressure Precipitation (cm)